sensor_id;sensor_type;location;lat;lon;timestamp;P1;durP1;ratioP1;P2;durP2;ratioP2
5499;SDS011;2772;42.700;23.304;2022-11-18T00:00:08;105.47;;;49.60;;
5499;SDS011;2772;42.700;23.304;2022-11-18T00:02:37;122.97;;;53.37;;
5499;SDS011;2772;42.700;23.304;2022-11-18T00:05:04;99.60;;;49.13;;
5499;SDS011;2772;42.700;23.304;2022-11-18T00:07:31;108.87;;;49.10;;
5499;SDS011;2772;42.700;23.304;2022-11-18T00:09:57;98.47;;;48.63;;
5499;SDS011;2772;42.700;23.304;2022-11-18T00:12:24;115.03;;;50.47;;
5499;SDS011;2772;42.700;23.304;2022-11-18T00:15:09;108.07;;;52.17;;
5499;SDS011;2772;42.700;23.304;2022-11-18T00:17:37;119.47;;;51.50;;
5499;SDS011;2772;42.700;23.304;2022-11-18T00:20:04;101.40;;;47.57;;
5499;SDS011;2772;42.700;23.304;2022-11-18T00:22:32;105.13;;;48.40;;
5499;SDS011;2772;42.700;23.304;2022-11-18T00:24:58;102.90;;;47.43;;
5499;SDS011;2772;42.700;23.304;2022-11-18T00:27:28;101.20;;;47.20;;
5499;SDS011;2772;42.700;23.304;2022-11-18T00:29:55;92.50;;;44.97;;
5499;SDS011;2772;42.700;23.304;2022-11-18T00:32:21;99.00;;;45.07;;
5499;SDS011;2772;42.700;23.304;2022-11-18T00:34:50;106.43;;;50.63;;
5499;SDS011;2772;42.700;23.304;2022-11-18T00:37:16;96.27;;;44.90;;
5499;SDS011;2772;42.700;23.304;2022-11-18T00:39:43;83.07;;;43.50;;
5499;SDS011;2772;42.700;23.304;2022-11-18T00:42:10;86.13;;;44.10;;
5499;SDS011;2772;42.700;23.304;2022-11-18T00:44:53;95.13;;;46.63;;
5499;SDS011;2772;42.700;23.304;2022-11-18T00:47:20;95.03;;;46.80;;
5499;SDS011;2772;42.700;23.304;2022-11-18T00:49:46;90.93;;;48.30;;
5499;SDS011;2772;42.700;23.304;2022-11-18T00:52:15;99.47;;;49.73;;
5499;SDS011;2772;42.700;23.304;2022-11-18T00:54:41;98.63;;;48.73;;
5499;SDS011;2772;42.700;23.304;2022-11-18T00:57:10;112.30;;;47.30;;
5499;SDS011;2772;42.700;23.304;2022-11-18T00:59:36;92.85;;;48.83;;
5499;SDS011;2772;42.700;23.304;2022-11-18T01:02:03;103.10;;;49.17;;
5499;SDS011;2772;42.700;23.304;2022-11-18T01:04:30;92.07;;;46.97;;
5499;SDS011;2772;42.700;23.304;2022-11-18T01:06:57;90.17;;;47.70;;
5499;SDS011;2772;42.700;23.304;2022-11-18T01:09:25;120.90;;;52.90;;
5499;SDS011;2772;42.700;23.304;2022-11-18T01:11:52;123.00;;;58.60;;
5499;SDS011;2772;42.700;23.304;2022-11-18T01:14:36;165.37;;;88.27;;
5499;SDS011;2772;42.700;23.304;2022-11-18T01:17:03;173.73;;;78.60;;
5499;SDS011;2772;42.700;23.304;2022-11-18T01:19:30;141.23;;;68.83;;
5499;SDS011;2772;42.700;23.304;2022-11-18T01:21:56;129.93;;;68.70;;
5499;SDS011;2772;42.700;23.304;2022-11-18T01:24:28;134.83;;;72.00;;
5499;SDS011;2772;42.700;23.304;2022-11-18T01:26:55;151.77;;;76.27;;
5499;SDS011;2772;42.700;23.304;2022-11-18T01:29:22;160.80;;;81.17;;
5499;SDS011;2772;42.700;23.304;2022-11-18T01:31:49;138.63;;;73.00;;
5499;SDS011;2772;42.700;23.304;2022-11-18T01:34:15;141.43;;;67.67;;
5499;SDS011;2772;42.700;23.304;2022-11-18T01:36:42;142.10;;;71.27;;
5499;SDS011;2772;42.700;23.304;2022-11-18T01:39:09;132.97;;;69.27;;
5499;SDS011;2772;42.700;23.304;2022-11-18T01:41:37;113.70;;;56.83;;
5499;SDS011;2772;42.700;23.304;2022-11-18T01:44:05;69.20;;;38.13;;
5499;SDS011;2772;42.700;23.304;2022-11-18T01:46:52;66.67;;;35.20;;
5499;SDS011;2772;42.700;23.304;2022-11-18T01:49:18;64.50;;;32.33;;
5499;SDS011;2772;42.700;23.304;2022-11-18T01:51:48;73.20;;;37.80;;
5499;SDS011;2772;42.700;23.304;2022-11-18T01:54:19;68.73;;;33.83;;
5499;SDS011;2772;42.700;23.304;2022-11-18T01:56:52;69.27;;;34.40;;
5499;SDS011;2772;42.700;23.304;2022-11-18T01:59:23;61.30;;;33.20;;
5499;SDS011;2772;42.700;23.304;2022-11-18T02:01:53;60.70;;;34.80;;
5499;SDS011;2772;42.700;23.304;2022-11-18T02:04:20;65.10;;;34.40;;
5499;SDS011;2772;42.700;23.304;2022-11-18T02:06:50;62.53;;;34.23;;
5499;SDS011;2772;42.700;23.304;2022-11-18T02:09:17;63.20;;;34.70;;
5499;SDS011;2772;42.700;23.304;2022-11-18T02:11:44;64.77;;;33.83;;
5499;SDS011;2772;42.700;23.304;2022-11-18T02:14:20;62.80;;;30.87;;
5499;SDS011;2772;42.700;23.304;2022-11-18T02:16:55;63.70;;;31.30;;
5499;SDS011;2772;42.700;23.304;2022-11-18T02:19:35;61.63;;;31.37;;
5499;SDS011;2772;42.700;23.304;2022-11-18T02:22:17;60.15;;;32.97;;
5499;SDS011;2772;42.700;23.304;2022-11-18T02:25:02;51.83;;;28.20;;
5499;SDS011;2772;42.700;23.304;2022-11-18T02:30:46;46.80;;;25.87;;
5499;SDS011;2772;42.700;23.304;2022-11-18T02:33:16;49.03;;;26.90;;
5499;SDS011;2772;42.700;23.304;2022-11-18T02:35:50;52.20;;;23.83;;
5499;SDS011;2772;42.700;23.304;2022-11-18T02:38:22;43.10;;;22.97;;
5499;SDS011;2772;42.700;23.304;2022-11-18T02:40:53;40.57;;;22.53;;
5499;SDS011;2772;42.700;23.304;2022-11-18T02:43:24;41.67;;;24.40;;
5499;SDS011;2772;42.700;23.304;2022-11-18T02:45:57;39.57;;;22.97;;
5499;SDS011;2772;42.700;23.304;2022-11-18T02:48:27;41.27;;;22.83;;
5499;SDS011;2772;42.700;23.304;2022-11-18T02:50:57;38.17;;;22.80;;
5499;SDS011;2772;42.700;23.304;2022-11-18T02:53:26;42.33;;;23.50;;
5499;SDS011;2772;42.700;23.304;2022-11-18T02:55:57;46.83;;;22.80;;
5499;SDS011;2772;42.700;23.304;2022-11-18T02:58:27;40.43;;;23.07;;
5499;SDS011;2772;42.700;23.304;2022-11-18T03:00:55;43.07;;;25.20;;
5499;SDS011;2772;42.700;23.304;2022-11-18T03:03:25;43.37;;;23.43;;
5499;SDS011;2772;42.700;23.304;2022-11-18T03:05:57;41.50;;;24.40;;
5499;SDS011;2772;42.700;23.304;2022-11-18T03:08:31;40.80;;;23.60;;
5499;SDS011;2772;42.700;23.304;2022-11-18T03:11:06;40.03;;;23.20;;
5499;SDS011;2772;42.700;23.304;2022-11-18T03:13:42;41.20;;;24.53;;
5499;SDS011;2772;42.700;23.304;2022-11-18T03:16:21;44.70;;;23.90;;
5499;SDS011;2772;42.700;23.304;2022-11-18T03:18:53;44.30;;;23.63;;
5499;SDS011;2772;42.700;23.304;2022-11-18T03:21:31;45.10;;;24.17;;
5499;SDS011;2772;42.700;23.304;2022-11-18T03:24:02;35.90;;;20.17;;
5499;SDS011;2772;42.700;23.304;2022-11-18T03:26:37;31.50;;;19.17;;
5499;SDS011;2772;42.700;23.304;2022-11-18T03:29:11;35.93;;;20.50;;
5499;SDS011;2772;42.700;23.304;2022-11-18T03:31:42;34.93;;;19.63;;
5499;SDS011;2772;42.700;23.304;2022-11-18T03:34:13;35.93;;;19.77;;
5499;SDS011;2772;42.700;23.304;2022-11-18T03:36:46;30.57;;;18.73;;
5499;SDS011;2772;42.700;23.304;2022-11-18T03:39:15;30.27;;;17.50;;
5499;SDS011;2772;42.700;23.304;2022-11-18T03:41:47;30.20;;;17.27;;
5499;SDS011;2772;42.700;23.304;2022-11-18T03:44:18;29.03;;;16.60;;
5499;SDS011;2772;42.700;23.304;2022-11-18T03:46:50;38.70;;;18.23;;
5499;SDS011;2772;42.700;23.304;2022-11-18T03:49:23;32.20;;;18.00;;
5499;SDS011;2772;42.700;23.304;2022-11-18T03:51:56;42.53;;;19.43;;
5499;SDS011;2772;42.700;23.304;2022-11-18T03:54:29;37.43;;;19.27;;
5499;SDS011;2772;42.700;23.304;2022-11-18T03:56:59;35.70;;;19.63;;
5499;SDS011;2772;42.700;23.304;2022-11-18T03:59:31;45.47;;;21.17;;
5499;SDS011;2772;42.700;23.304;2022-11-18T04:02:05;54.73;;;23.50;;
5499;SDS011;2772;42.700;23.304;2022-11-18T04:04:37;50.80;;;25.00;;
5499;SDS011;2772;42.700;23.304;2022-11-18T04:07:08;48.70;;;23.87;;
5499;SDS011;2772;42.700;23.304;2022-11-18T04:09:42;53.70;;;25.97;;
5499;SDS011;2772;42.700;23.304;2022-11-18T04:12:12;51.37;;;25.90;;
5499;SDS011;2772;42.700;23.304;2022-11-18T04:14:42;77.93;;;28.00;;
5499;SDS011;2772;42.700;23.304;2022-11-18T04:17:15;66.77;;;28.67;;
5499;SDS011;2772;42.700;23.304;2022-11-18T04:19:44;60.93;;;30.80;;
5499;SDS011;2772;42.700;23.304;2022-11-18T04:22:11;52.97;;;27.90;;
5499;SDS011;2772;42.700;23.304;2022-11-18T04:24:38;47.90;;;24.20;;
5499;SDS011;2772;42.700;23.304;2022-11-18T04:27:05;49.20;;;24.50;;
5499;SDS011;2772;42.700;23.304;2022-11-18T04:29:33;51.73;;;24.57;;
5499;SDS011;2772;42.700;23.304;2022-11-18T04:32:00;51.37;;;23.53;;
5499;SDS011;2772;42.700;23.304;2022-11-18T04:34:31;57.80;;;24.80;;
5499;SDS011;2772;42.700;23.304;2022-11-18T04:36:58;104.27;;;25.90;;
5499;SDS011;2772;42.700;23.304;2022-11-18T04:39:25;59.40;;;23.80;;
5499;SDS011;2772;42.700;23.304;2022-11-18T04:41:51;102.70;;;28.30;;
5499;SDS011;2772;42.700;23.304;2022-11-18T04:44:21;119.47;;;28.47;;
5499;SDS011;2772;42.700;23.304;2022-11-18T04:46:48;97.37;;;28.07;;
5499;SDS011;2772;42.700;23.304;2022-11-18T04:49:15;116.23;;;30.33;;
5499;SDS011;2772;42.700;23.304;2022-11-18T04:51:44;91.53;;;27.20;;
5499;SDS011;2772;42.700;23.304;2022-11-18T04:54:11;138.70;;;29.97;;
5499;SDS011;2772;42.700;23.304;2022-11-18T04:56:38;100.03;;;30.87;;
5499;SDS011;2772;42.700;23.304;2022-11-18T04:59:06;191.33;;;31.93;;
5499;SDS011;2772;42.700;23.304;2022-11-18T05:01:33;91.17;;;28.43;;
5499;SDS011;2772;42.700;23.304;2022-11-18T05:04:00;113.03;;;28.20;;
5499;SDS011;2772;42.700;23.304;2022-11-18T05:06:36;114.10;;;28.20;;
5499;SDS011;2772;42.700;23.304;2022-11-18T05:09:06;97.80;;;28.00;;
5499;SDS011;2772;42.700;23.304;2022-11-18T05:11:34;217.50;;;32.80;;
5499;SDS011;2772;42.700;23.304;2022-11-18T05:14:19;184.23;;;30.43;;
5499;SDS011;2772;42.700;23.304;2022-11-18T05:16:48;107.63;;;29.03;;
5499;SDS011;2772;42.700;23.304;2022-11-18T05:19:14;71.00;;;29.73;;
5499;SDS011;2772;42.700;23.304;2022-11-18T05:21:41;173.10;;;30.93;;
5499;SDS011;2772;42.700;23.304;2022-11-18T05:24:09;134.57;;;34.03;;
5499;SDS011;2772;42.700;23.304;2022-11-18T05:26:36;256.00;;;33.27;;
5499;SDS011;2772;42.700;23.304;2022-11-18T05:29:03;256.90;;;34.37;;
5499;SDS011;2772;42.700;23.304;2022-11-18T05:31:31;133.37;;;29.90;;
5499;SDS011;2772;42.700;23.304;2022-11-18T05:33:58;145.17;;;31.60;;
5499;SDS011;2772;42.700;23.304;2022-11-18T05:36:25;139.77;;;34.30;;
5499;SDS011;2772;42.700;23.304;2022-11-18T05:38:52;103.20;;;32.33;;
5499;SDS011;2772;42.700;23.304;2022-11-18T05:41:20;101.60;;;33.40;;
5499;SDS011;2772;42.700;23.304;2022-11-18T05:44:04;197.83;;;34.00;;
5499;SDS011;2772;42.700;23.304;2022-11-18T05:46:31;229.80;;;37.13;;
5499;SDS011;2772;42.700;23.304;2022-11-18T05:48:59;146.80;;;33.40;;
5499;SDS011;2772;42.700;23.304;2022-11-18T05:51:26;140.43;;;32.07;;
5499;SDS011;2772;42.700;23.304;2022-11-18T05:53:53;275.10;;;35.00;;
5499;SDS011;2772;42.700;23.304;2022-11-18T05:56:22;246.70;;;35.00;;
5499;SDS011;2772;42.700;23.304;2022-11-18T05:58:53;252.70;;;33.53;;
5499;SDS011;2772;42.700;23.304;2022-11-18T06:01:20;243.47;;;31.13;;
5499;SDS011;2772;42.700;23.304;2022-11-18T06:03:50;326.70;;;31.60;;
5499;SDS011;2772;42.700;23.304;2022-11-18T06:06:18;311.13;;;31.53;;
5499;SDS011;2772;42.700;23.304;2022-11-18T06:08:48;288.30;;;29.77;;
5499;SDS011;2772;42.700;23.304;2022-11-18T06:11:18;298.13;;;31.80;;
5499;SDS011;2772;42.700;23.304;2022-11-18T06:13:49;280.47;;;34.50;;
5499;SDS011;2772;42.700;23.304;2022-11-18T06:16:27;246.40;;;29.73;;
5499;SDS011;2772;42.700;23.304;2022-11-18T06:18:56;306.37;;;34.23;;
5499;SDS011;2772;42.700;23.304;2022-11-18T06:21:26;165.20;;;31.07;;
5499;SDS011;2772;42.700;23.304;2022-11-18T06:23:54;138.00;;;30.80;;
5499;SDS011;2772;42.700;23.304;2022-11-18T06:26:23;250.37;;;32.03;;
5499;SDS011;2772;42.700;23.304;2022-11-18T06:28:51;249.73;;;31.83;;
5499;SDS011;2772;42.700;23.304;2022-11-18T06:31:18;254.60;;;31.07;;
5499;SDS011;2772;42.700;23.304;2022-11-18T06:33:44;243.93;;;30.97;;
5499;SDS011;2772;42.700;23.304;2022-11-18T06:36:11;237.17;;;26.40;;
5499;SDS011;2772;42.700;23.304;2022-11-18T06:38:38;313.30;;;29.63;;
5499;SDS011;2772;42.700;23.304;2022-11-18T06:41:06;223.73;;;28.70;;
5499;SDS011;2772;42.700;23.304;2022-11-18T06:43:32;259.30;;;27.10;;
5499;SDS011;2772;42.700;23.304;2022-11-18T06:46:08;240.70;;;25.40;;
5499;SDS011;2772;42.700;23.304;2022-11-18T06:48:54;123.33;;;20.80;;
5499;SDS011;2772;42.700;23.304;2022-11-18T06:51:22;137.67;;;20.60;;
5499;SDS011;2772;42.700;23.304;2022-11-18T06:53:49;159.53;;;21.13;;
5499;SDS011;2772;42.700;23.304;2022-11-18T06:56:17;208.97;;;21.67;;
5499;SDS011;2772;42.700;23.304;2022-11-18T06:58:44;152.73;;;22.10;;
5499;SDS011;2772;42.700;23.304;2022-11-18T07:01:14;139.03;;;21.30;;
5499;SDS011;2772;42.700;23.304;2022-11-18T07:03:42;148.37;;;24.13;;
5499;SDS011;2772;42.700;23.304;2022-11-18T07:06:10;125.97;;;23.00;;
5499;SDS011;2772;42.700;23.304;2022-11-18T07:08:38;197.80;;;24.73;;
5499;SDS011;2772;42.700;23.304;2022-11-18T07:11:07;158.23;;;21.70;;
5499;SDS011;2772;42.700;23.304;2022-11-18T07:13:39;105.30;;;21.07;;
5499;SDS011;2772;42.700;23.304;2022-11-18T07:16:08;87.93;;;20.47;;
5499;SDS011;2772;42.700;23.304;2022-11-18T07:18:38;143.57;;;24.83;;
5499;SDS011;2772;42.700;23.304;2022-11-18T07:21:06;135.63;;;20.77;;
5499;SDS011;2772;42.700;23.304;2022-11-18T07:23:35;90.10;;;20.97;;
5499;SDS011;2772;42.700;23.304;2022-11-18T07:26:02;143.23;;;31.40;;
5499;SDS011;2772;42.700;23.304;2022-11-18T07:28:30;95.83;;;22.10;;
5499;SDS011;2772;42.700;23.304;2022-11-18T07:31:00;90.13;;;21.00;;
5499;SDS011;2772;42.700;23.304;2022-11-18T07:33:28;84.43;;;22.00;;
5499;SDS011;2772;42.700;23.304;2022-11-18T07:36:00;84.33;;;27.30;;
5499;SDS011;2772;42.700;23.304;2022-11-18T07:38:27;98.50;;;26.37;;
5499;SDS011;2772;42.700;23.304;2022-11-18T07:40:54;110.67;;;22.20;;
5499;SDS011;2772;42.700;23.304;2022-11-18T07:43:21;92.43;;;22.90;;
5499;SDS011;2772;42.700;23.304;2022-11-18T07:45:48;91.90;;;28.10;;
5499;SDS011;2772;42.700;23.304;2022-11-18T07:48:14;112.70;;;23.23;;
5499;SDS011;2772;42.700;23.304;2022-11-18T07:50:41;63.03;;;20.67;;
5499;SDS011;2772;42.700;23.304;2022-11-18T07:53:10;71.20;;;21.13;;
5499;SDS011;2772;42.700;23.304;2022-11-18T07:55:37;95.90;;;21.17;;
5499;SDS011;2772;42.700;23.304;2022-11-18T07:58:04;91.20;;;21.17;;
5499;SDS011;2772;42.700;23.304;2022-11-18T08:00:30;71.90;;;19.47;;
5499;SDS011;2772;42.700;23.304;2022-11-18T08:02:57;62.50;;;27.10;;
5499;SDS011;2772;42.700;23.304;2022-11-18T08:05:24;58.93;;;27.17;;
5499;SDS011;2772;42.700;23.304;2022-11-18T08:07:51;108.27;;;20.30;;
5499;SDS011;2772;42.700;23.304;2022-11-18T08:10:19;95.20;;;22.97;;
5499;SDS011;2772;42.700;23.304;2022-11-18T08:12:46;80.47;;;22.20;;
5499;SDS011;2772;42.700;23.304;2022-11-18T08:15:12;73.87;;;24.97;;
5499;SDS011;2772;42.700;23.304;2022-11-18T08:17:39;51.80;;;21.67;;
5499;SDS011;2772;42.700;23.304;2022-11-18T08:20:06;64.90;;;22.33;;
5499;SDS011;2772;42.700;23.304;2022-11-18T08:22:33;88.20;;;24.23;;
5499;SDS011;2772;42.700;23.304;2022-11-18T08:25:00;89.87;;;21.60;;
5499;SDS011;2772;42.700;23.304;2022-11-18T08:27:31;68.37;;;25.90;;
5499;SDS011;2772;42.700;23.304;2022-11-18T08:29:59;83.50;;;23.33;;
5499;SDS011;2772;42.700;23.304;2022-11-18T08:32:26;65.00;;;24.27;;
5499;SDS011;2772;42.700;23.304;2022-11-18T08:34:53;59.03;;;22.80;;
5499;SDS011;2772;42.700;23.304;2022-11-18T08:37:20;78.13;;;25.13;;
5499;SDS011;2772;42.700;23.304;2022-11-18T08:39:46;92.50;;;26.77;;
5499;SDS011;2772;42.700;23.304;2022-11-18T08:42:13;85.57;;;25.10;;
5499;SDS011;2772;42.700;23.304;2022-11-18T08:44:42;90.27;;;25.07;;
5499;SDS011;2772;42.700;23.304;2022-11-18T08:47:09;100.00;;;28.30;;
5499;SDS011;2772;42.700;23.304;2022-11-18T08:49:36;70.13;;;27.03;;
5499;SDS011;2772;42.700;23.304;2022-11-18T08:52:03;79.07;;;28.00;;
5499;SDS011;2772;42.700;23.304;2022-11-18T08:54:30;67.27;;;26.77;;
5499;SDS011;2772;42.700;23.304;2022-11-18T08:56:56;73.13;;;27.90;;
5499;SDS011;2772;42.700;23.304;2022-11-18T08:59:23;71.40;;;26.80;;
5499;SDS011;2772;42.700;23.304;2022-11-18T09:01:51;75.43;;;31.30;;
5499;SDS011;2772;42.700;23.304;2022-11-18T09:04:18;72.77;;;28.67;;
5499;SDS011;2772;42.700;23.304;2022-11-18T09:06:45;64.90;;;28.40;;
5499;SDS011;2772;42.700;23.304;2022-11-18T09:09:12;69.27;;;27.53;;
5499;SDS011;2772;42.700;23.304;2022-11-18T09:11:38;65.07;;;24.70;;
5499;SDS011;2772;42.700;23.304;2022-11-18T09:14:06;67.70;;;27.03;;
5499;SDS011;2772;42.700;23.304;2022-11-18T09:16:36;82.97;;;31.83;;
5499;SDS011;2772;42.700;23.304;2022-11-18T09:19:04;72.97;;;27.57;;
5499;SDS011;2772;42.700;23.304;2022-11-18T09:21:31;66.07;;;27.10;;
5499;SDS011;2772;42.700;23.304;2022-11-18T09:23:57;63.87;;;27.37;;
5499;SDS011;2772;42.700;23.304;2022-11-18T09:26:24;70.10;;;28.07;;
5499;SDS011;2772;42.700;23.304;2022-11-18T09:28:52;76.20;;;26.70;;
5499;SDS011;2772;42.700;23.304;2022-11-18T09:31:19;69.83;;;27.80;;
5499;SDS011;2772;42.700;23.304;2022-11-18T09:33:46;72.70;;;29.97;;
5499;SDS011;2772;42.700;23.304;2022-11-18T09:36:15;72.17;;;29.30;;
5499;SDS011;2772;42.700;23.304;2022-11-18T09:38:45;94.07;;;31.10;;
5499;SDS011;2772;42.700;23.304;2022-11-18T09:41:15;66.67;;;29.20;;
5499;SDS011;2772;42.700;23.304;2022-11-18T09:43:54;81.90;;;31.97;;
5499;SDS011;2772;42.700;23.304;2022-11-18T09:46:37;78.93;;;31.67;;
5499;SDS011;2772;42.700;23.304;2022-11-18T09:49:14;76.03;;;30.60;;
5499;SDS011;2772;42.700;23.304;2022-11-18T09:51:48;71.07;;;31.20;;
5499;SDS011;2772;42.700;23.304;2022-11-18T09:54:17;73.60;;;31.50;;
5499;SDS011;2772;42.700;23.304;2022-11-18T09:56:47;80.27;;;32.57;;
5499;SDS011;2772;42.700;23.304;2022-11-18T09:59:16;73.97;;;31.57;;
5499;SDS011;2772;42.700;23.304;2022-11-18T10:01:45;75.10;;;32.30;;
5499;SDS011;2772;42.700;23.304;2022-11-18T10:04:14;65.90;;;31.37;;
5499;SDS011;2772;42.700;23.304;2022-11-18T10:06:41;81.77;;;32.90;;
5499;SDS011;2772;42.700;23.304;2022-11-18T10:09:15;80.67;;;30.80;;
5499;SDS011;2772;42.700;23.304;2022-11-18T10:11:56;76.10;;;31.17;;
5499;SDS011;2772;42.700;23.304;2022-11-18T10:14:44;75.47;;;30.73;;
5499;SDS011;2772;42.700;23.304;2022-11-18T10:17:29;73.33;;;29.70;;
5499;SDS011;2772;42.700;23.304;2022-11-18T10:20:10;61.50;;;28.43;;
5499;SDS011;2772;42.700;23.304;2022-11-18T10:22:47;76.33;;;31.57;;
5499;SDS011;2772;42.700;23.304;2022-11-18T10:25:19;70.67;;;29.20;;
5499;SDS011;2772;42.700;23.304;2022-11-18T10:27:47;57.77;;;28.03;;
5499;SDS011;2772;42.700;23.304;2022-11-18T10:30:18;65.47;;;30.70;;
5499;SDS011;2772;42.700;23.304;2022-11-18T10:32:57;64.47;;;28.40;;
5499;SDS011;2772;42.700;23.304;2022-11-18T10:35:27;60.90;;;27.93;;
5499;SDS011;2772;42.700;23.304;2022-11-18T10:37:59;70.30;;;29.33;;
5499;SDS011;2772;42.700;23.304;2022-11-18T10:40:32;57.80;;;28.07;;
5499;SDS011;2772;42.700;23.304;2022-11-18T10:43:01;56.30;;;26.80;;
5499;SDS011;2772;42.700;23.304;2022-11-18T10:45:28;41.93;;;23.20;;
5499;SDS011;2772;42.700;23.304;2022-11-18T10:47:58;56.83;;;25.07;;
5499;SDS011;2772;42.700;23.304;2022-11-18T10:50:35;67.30;;;27.27;;
5499;SDS011;2772;42.700;23.304;2022-11-18T10:53:03;64.07;;;27.87;;
5499;SDS011;2772;42.700;23.304;2022-11-18T10:55:32;59.40;;;26.27;;
5499;SDS011;2772;42.700;23.304;2022-11-18T10:58:00;58.93;;;26.70;;
5499;SDS011;2772;42.700;23.304;2022-11-18T11:00:37;60.60;;;28.73;;
5499;SDS011;2772;42.700;23.304;2022-11-18T11:03:22;56.47;;;27.73;;
5499;SDS011;2772;42.700;23.304;2022-11-18T11:08:55;57.43;;;24.80;;
5499;SDS011;2772;42.700;23.304;2022-11-18T11:11:25;55.00;;;27.20;;
5499;SDS011;2772;42.700;23.304;2022-11-18T11:13:55;60.27;;;30.93;;
5499;SDS011;2772;42.700;23.304;2022-11-18T11:16:27;69.97;;;32.17;;
5499;SDS011;2772;42.700;23.304;2022-11-18T11:18:57;69.80;;;34.13;;
5499;SDS011;2772;42.700;23.304;2022-11-18T11:21:27;73.43;;;34.23;;
5499;SDS011;2772;42.700;23.304;2022-11-18T11:23:55;68.10;;;30.20;;
5499;SDS011;2772;42.700;23.304;2022-11-18T11:26:26;75.67;;;34.40;;
5499;SDS011;2772;42.700;23.304;2022-11-18T11:29:00;60.30;;;30.13;;
5499;SDS011;2772;42.700;23.304;2022-11-18T11:31:39;55.47;;;27.70;;
5499;SDS011;2772;42.700;23.304;2022-11-18T11:34:10;55.63;;;27.53;;
5499;SDS011;2772;42.700;23.304;2022-11-18T11:36:47;46.07;;;26.80;;
5499;SDS011;2772;42.700;23.304;2022-11-18T11:39:22;47.60;;;24.97;;
5499;SDS011;2772;42.700;23.304;2022-11-18T11:42:13;48.23;;;25.90;;
5499;SDS011;2772;42.700;23.304;2022-11-18T11:44:52;48.83;;;25.93;;
5499;SDS011;2772;42.700;23.304;2022-11-18T11:47:32;51.53;;;26.57;;
5499;SDS011;2772;42.700;23.304;2022-11-18T11:50:20;49.73;;;26.47;;
5499;SDS011;2772;42.700;23.304;2022-11-18T11:53:00;53.20;;;27.07;;
5499;SDS011;2772;42.700;23.304;2022-11-18T11:55:44;48.70;;;26.10;;
5499;SDS011;2772;42.700;23.304;2022-11-18T11:58:25;51.00;;;26.00;;
5499;SDS011;2772;42.700;23.304;2022-11-18T12:01:04;43.03;;;25.00;;
5499;SDS011;2772;42.700;23.304;2022-11-18T12:03:43;38.90;;;22.93;;
5499;SDS011;2772;42.700;23.304;2022-11-18T12:06:12;48.77;;;24.57;;
5499;SDS011;2772;42.700;23.304;2022-11-18T12:08:42;44.37;;;23.63;;
5499;SDS011;2772;42.700;23.304;2022-11-18T12:11:16;47.37;;;25.27;;
5499;SDS011;2772;42.700;23.304;2022-11-18T12:13:57;42.70;;;23.43;;
5499;SDS011;2772;42.700;23.304;2022-11-18T12:16:30;61.27;;;25.60;;
5499;SDS011;2772;42.700;23.304;2022-11-18T12:19:02;44.87;;;24.17;;
5499;SDS011;2772;42.700;23.304;2022-11-18T12:21:52;56.20;;;26.00;;
5499;SDS011;2772;42.700;23.304;2022-11-18T12:24:33;47.40;;;23.20;;
5499;SDS011;2772;42.700;23.304;2022-11-18T12:27:03;43.90;;;22.77;;
5499;SDS011;2772;42.700;23.304;2022-11-18T12:29:37;41.43;;;22.60;;
5499;SDS011;2772;42.700;23.304;2022-11-18T12:32:25;42.30;;;22.50;;
5499;SDS011;2772;42.700;23.304;2022-11-18T12:34:55;53.87;;;28.27;;
5499;SDS011;2772;42.700;23.304;2022-11-18T12:40:31;34.97;;;18.10;;
5499;SDS011;2772;42.700;23.304;2022-11-18T12:43:00;42.37;;;20.33;;
5499;SDS011;2772;42.700;23.304;2022-11-18T12:45:49;46.43;;;22.23;;
5499;SDS011;2772;42.700;23.304;2022-11-18T12:48:29;38.20;;;19.60;;
5499;SDS011;2772;42.700;23.304;2022-11-18T12:54:21;27.57;;;16.83;;
5499;SDS011;2772;42.700;23.304;2022-11-18T12:56:51;37.30;;;13.93;;
5499;SDS011;2772;42.700;23.304;2022-11-18T12:59:25;31.10;;;13.97;;
5499;SDS011;2772;42.700;23.304;2022-11-18T13:02:05;36.43;;;14.93;;
5499;SDS011;2772;42.700;23.304;2022-11-18T13:05:01;28.10;;;14.07;;
5499;SDS011;2772;42.700;23.304;2022-11-18T13:07:37;37.30;;;17.20;;
5499;SDS011;2772;42.700;23.304;2022-11-18T13:10:25;43.95;;;19.95;;
5499;SDS011;2772;42.700;23.304;2022-11-18T13:12:54;33.73;;;14.70;;
5499;SDS011;2772;42.700;23.304;2022-11-18T13:15:21;28.47;;;14.57;;
5499;SDS011;2772;42.700;23.304;2022-11-18T13:18:11;31.53;;;15.13;;
5499;SDS011;2772;42.700;23.304;2022-11-18T13:20:42;33.00;;;15.80;;
5499;SDS011;2772;42.700;23.304;2022-11-18T13:23:23;31.33;;;14.43;;
5499;SDS011;2772;42.700;23.304;2022-11-18T13:26:11;18.93;;;11.00;;
5499;SDS011;2772;42.700;23.304;2022-11-18T13:28:44;18.80;;;6.70;;
5499;SDS011;2772;42.700;23.304;2022-11-18T13:31:20;20.23;;;13.20;;
5499;SDS011;2772;42.700;23.304;2022-11-18T13:33:55;19.30;;;6.57;;
5499;SDS011;2772;42.700;23.304;2022-11-18T13:36:27;9.17;;;5.13;;
5499;SDS011;2772;42.700;23.304;2022-11-18T13:38:54;12.60;;;4.77;;
5499;SDS011;2772;42.700;23.304;2022-11-18T13:41:22;4.70;;;3.83;;
5499;SDS011;2772;42.700;23.304;2022-11-18T13:44:08;7.93;;;4.40;;
5499;SDS011;2772;42.700;23.304;2022-11-18T13:46:42;14.47;;;6.30;;
5499;SDS011;2772;42.700;23.304;2022-11-18T13:49:13;9.23;;;5.50;;
5499;SDS011;2772;42.700;23.304;2022-11-18T13:51:44;14.43;;;7.93;;
5499;SDS011;2772;42.700;23.304;2022-11-18T13:54:12;15.50;;;7.30;;
5499;SDS011;2772;42.700;23.304;2022-11-18T13:56:45;8.30;;;5.97;;
5499;SDS011;2772;42.700;23.304;2022-11-18T13:59:13;12.70;;;7.90;;
5499;SDS011;2772;42.700;23.304;2022-11-18T14:01:44;17.17;;;9.03;;
5499;SDS011;2772;42.700;23.304;2022-11-18T14:04:16;23.23;;;7.63;;
5499;SDS011;2772;42.700;23.304;2022-11-18T14:06:46;17.23;;;7.10;;
5499;SDS011;2772;42.700;23.304;2022-11-18T14:09:21;33.67;;;8.73;;
5499;SDS011;2772;42.700;23.304;2022-11-18T14:11:56;21.83;;;7.73;;
5499;SDS011;2772;42.700;23.304;2022-11-18T14:14:29;24.73;;;9.83;;
5499;SDS011;2772;42.700;23.304;2022-11-18T14:17:11;18.50;;;8.60;;
5499;SDS011;2772;42.700;23.304;2022-11-18T14:19:44;31.30;;;9.20;;
5499;SDS011;2772;42.700;23.304;2022-11-18T14:22:12;11.90;;;5.90;;
5499;SDS011;2772;42.700;23.304;2022-11-18T14:24:41;13.20;;;7.97;;
5499;SDS011;2772;42.700;23.304;2022-11-18T14:27:27;27.53;;;10.60;;
5499;SDS011;2772;42.700;23.304;2022-11-18T14:30:24;27.27;;;8.50;;
5499;SDS011;2772;42.700;23.304;2022-11-18T14:33:06;14.77;;;8.07;;
5499;SDS011;2772;42.700;23.304;2022-11-18T14:35:39;15.83;;;7.77;;
5499;SDS011;2772;42.700;23.304;2022-11-18T14:38:11;9.67;;;3.83;;
5499;SDS011;2772;42.700;23.304;2022-11-18T14:40:39;15.93;;;4.30;;
5499;SDS011;2772;42.700;23.304;2022-11-18T14:43:06;11.90;;;4.40;;
5499;SDS011;2772;42.700;23.304;2022-11-18T14:45:35;8.73;;;3.37;;
5499;SDS011;2772;42.700;23.304;2022-11-18T14:48:05;9.80;;;3.70;;
5499;SDS011;2772;42.700;23.304;2022-11-18T14:50:38;6.13;;;3.00;;
5499;SDS011;2772;42.700;23.304;2022-11-18T14:53:05;6.63;;;3.77;;
5499;SDS011;2772;42.700;23.304;2022-11-18T14:55:33;13.30;;;5.00;;
5499;SDS011;2772;42.700;23.304;2022-11-18T14:58:01;12.17;;;4.87;;
5499;SDS011;2772;42.700;23.304;2022-11-18T15:00:28;6.83;;;3.50;;
5499;SDS011;2772;42.700;23.304;2022-11-18T15:02:55;12.33;;;5.83;;
5499;SDS011;2772;42.700;23.304;2022-11-18T15:05:21;9.23;;;3.47;;
5499;SDS011;2772;42.700;23.304;2022-11-18T15:07:49;4.77;;;2.40;;